sensor_id;sensor_type;location;lat;lon;timestamp;pressure;altitude;pressure_sealevel;temperature;humidity
71194;BME280;58903;47.210;8.618;2024-01-10T00:01:37;94610.19;;;24.79;37.83
71194;BME280;58903;47.210;8.618;2024-01-10T00:04:14;94604.69;;;24.79;37.58
71194;BME280;58903;47.210;8.618;2024-01-10T00:06:43;94598.66;;;24.81;37.86
71194;BME280;58903;47.210;8.618;2024-01-10T00:09:10;94591.91;;;24.76;37.45
71194;BME280;58903;47.210;8.618;2024-01-10T00:11:41;94603.94;;;24.79;37.31
71194;BME280;58903;47.210;8.618;2024-01-10T00:14:11;94603.41;;;24.80;38.03
71194;BME280;58903;47.210;8.618;2024-01-10T00:16:38;94590.41;;;24.81;37.82
71194;BME280;58903;47.210;8.618;2024-01-10T00:19:04;94582.91;;;24.81;37.82
71194;BME280;58903;47.210;8.618;2024-01-10T00:21:30;94577.91;;;24.80;38.06
71194;BME280;58903;47.210;8.618;2024-01-10T00:24:07;94584.91;;;24.81;37.35
71194;BME280;58903;47.210;8.618;2024-01-10T00:26:35;94581.41;;;24.80;36.79
71194;BME280;58903;47.210;8.618;2024-01-10T00:29:11;94585.66;;;24.81;37.10
71194;BME280;58903;47.210;8.618;2024-01-10T00:31:43;94583.66;;;24.82;37.00
71194;BME280;58903;47.210;8.618;2024-01-10T00:34:09;94569.66;;;24.80;37.80
71194;BME280;58903;47.210;8.618;2024-01-10T00:36:35;94570.91;;;24.79;37.32
71194;BME280;58903;47.210;8.618;2024-01-10T00:39:03;94576.41;;;24.79;37.51
71194;BME280;58903;47.210;8.618;2024-01-10T00:41:32;94574.66;;;24.81;37.08
71194;BME280;58903;47.210;8.618;2024-01-10T00:43:59;94578.16;;;24.82;37.88
71194;BME280;58903;47.210;8.618;2024-01-10T00:46:30;94568.16;;;24.79;37.92
71194;BME280;58903;47.210;8.618;2024-01-10T00:48:57;94577.16;;;24.79;37.73
71194;BME280;58903;47.210;8.618;2024-01-10T00:51:44;94577.16;;;24.79;37.17
71194;BME280;58903;47.210;8.618;2024-01-10T00:54:15;94579.41;;;24.81;37.94
71194;BME280;58903;47.210;8.618;2024-01-10T00:56:52;94574.41;;;24.79;37.27
71194;BME280;58903;47.210;8.618;2024-01-10T00:59:26;94580.16;;;24.81;37.74
71194;BME280;58903;47.210;8.618;2024-01-10T01:01:53;94579.41;;;24.81;37.62
71194;BME280;58903;47.210;8.618;2024-01-10T01:04:20;94573.16;;;24.80;37.18
71194;BME280;58903;47.210;8.618;2024-01-10T01:06:51;94575.66;;;24.78;36.76
71194;BME280;58903;47.210;8.618;2024-01-10T01:09:29;94580.66;;;24.80;36.86
71194;BME280;58903;47.210;8.618;2024-01-10T01:11:55;94574.91;;;24.78;37.14
71194;BME280;58903;47.210;8.618;2024-01-10T01:14:21;94582.66;;;24.79;36.88
71194;BME280;58903;47.210;8.618;2024-01-10T01:16:52;94586.66;;;24.78;36.85
71194;BME280;58903;47.210;8.618;2024-01-10T01:19:18;94584.66;;;24.79;37.73
71194;BME280;58903;47.210;8.618;2024-01-10T01:21:44;94594.41;;;24.80;37.32
71194;BME280;58903;47.210;8.618;2024-01-10T01:24:10;94592.91;;;24.79;37.66
71194;BME280;58903;47.210;8.618;2024-01-10T01:26:38;94590.41;;;24.81;37.28
71194;BME280;58903;47.210;8.618;2024-01-10T01:29:04;94595.91;;;24.81;36.62
71194;BME280;58903;47.210;8.618;2024-01-10T01:31:34;94597.66;;;24.78;37.54
71194;BME280;58903;47.210;8.618;2024-01-10T01:34:00;94595.41;;;24.77;36.81
71194;BME280;58903;47.210;8.618;2024-01-10T01:36:27;94598.19;;;24.77;36.89
71194;BME280;58903;47.210;8.618;2024-01-10T01:38:53;94608.66;;;24.78;37.85
71194;BME280;58903;47.210;8.618;2024-01-10T01:41:19;94603.94;;;24.79;37.41
71194;BME280;58903;47.210;8.618;2024-01-10T01:43:45;94603.94;;;24.79;37.00
71194;BME280;58903;47.210;8.618;2024-01-10T01:46:11;94601.94;;;24.79;37.34
71194;BME280;58903;47.210;8.618;2024-01-10T01:48:38;94590.94;;;24.79;37.10
71194;BME280;58903;47.210;8.618;2024-01-10T01:51:07;94599.91;;;24.80;37.02
71194;BME280;58903;47.210;8.618;2024-01-10T01:53:37;94603.94;;;24.79;36.73
71194;BME280;58903;47.210;8.618;2024-01-10T01:56:08;94593.44;;;24.77;37.32
71194;BME280;58903;47.210;8.618;2024-01-10T01:59:04;94599.91;;;24.80;36.70
71194;BME280;58903;47.210;8.618;2024-01-10T02:01:30;94592.91;;;24.79;37.47
71194;BME280;58903;47.210;8.618;2024-01-10T02:04:24;94594.16;;;24.78;37.56
71194;BME280;58903;47.210;8.618;2024-01-10T02:06:54;94584.41;;;24.77;37.24
71194;BME280;58903;47.210;8.618;2024-01-10T02:09:32;94580.16;;;24.76;36.98
71194;BME280;58903;47.210;8.618;2024-01-10T02:11:58;94587.41;;;24.79;36.64
71194;BME280;58903;47.210;8.618;2024-01-10T02:14:35;94581.66;;;24.77;36.60
71194;BME280;58903;47.210;8.618;2024-01-10T02:17:05;94590.16;;;24.79;36.86
71194;BME280;58903;47.210;8.618;2024-01-10T02:19:33;94592.91;;;24.79;37.25
71194;BME280;58903;47.210;8.618;2024-01-10T02:22:07;94585.91;;;24.78;37.20
71194;BME280;58903;47.210;8.618;2024-01-10T02:24:35;94585.91;;;24.78;36.57
71194;BME280;58903;47.210;8.618;2024-01-10T02:27:01;94585.91;;;24.78;36.94
71194;BME280;58903;47.210;8.618;2024-01-10T02:29:28;94586.91;;;24.75;37.44
71194;BME280;58903;47.210;8.618;2024-01-10T02:31:57;94580.41;;;24.78;36.96
71194;BME280;58903;47.210;8.618;2024-01-10T02:34:36;94581.16;;;24.78;37.16
71194;BME280;58903;47.210;8.618;2024-01-10T02:37:14;94583.16;;;24.78;37.24
71194;BME280;58903;47.210;8.618;2024-01-10T02:39:45;94585.91;;;24.78;37.12
71194;BME280;58903;47.210;8.618;2024-01-10T02:42:12;94578.66;;;24.75;36.59
71194;BME280;58903;47.210;8.618;2024-01-10T02:44:59;94587.41;;;24.79;36.71
71194;BME280;58903;47.210;8.618;2024-01-10T02:47:25;94582.44;;;24.77;36.80
71194;BME280;58903;47.210;8.618;2024-01-10T02:49:53;94586.41;;;24.76;37.29
71194;BME280;58903;47.210;8.618;2024-01-10T02:52:21;94581.41;;;24.75;36.66
71194;BME280;58903;47.210;8.618;2024-01-10T02:54:49;94586.91;;;24.75;36.85
71194;BME280;58903;47.210;8.618;2024-01-10T02:57:24;94591.16;;;24.76;36.58
71194;BME280;58903;47.210;8.618;2024-01-10T02:59:52;94593.91;;;24.76;36.48
71194;BME280;58903;47.210;8.618;2024-01-10T03:02:21;94586.91;;;24.75;37.43
71194;BME280;58903;47.210;8.618;2024-01-10T03:05:05;94588.88;;;24.74;37.26
71194;BME280;58903;47.210;8.618;2024-01-10T03:07:37;94593.16;;;24.75;36.72
71194;BME280;58903;47.210;8.618;2024-01-10T03:10:33;94586.91;;;24.75;36.62
71194;BME280;58903;47.210;8.618;2024-01-10T03:13:14;94586.13;;;24.74;37.02
71194;BME280;58903;47.210;8.618;2024-01-10T03:15:52;94585.66;;;24.76;37.10
71194;BME280;58903;47.210;8.618;2024-01-10T03:18:20;94589.91;;;24.77;36.82
71194;BME280;58903;47.210;8.618;2024-01-10T03:20:48;94581.41;;;24.75;36.57
71194;BME280;58903;47.210;8.618;2024-01-10T03:23:14;94579.41;;;24.75;36.66
71194;BME280;58903;47.210;8.618;2024-01-10T03:25:40;94586.41;;;24.76;36.57
71194;BME280;58903;47.210;8.618;2024-01-10T03:28:06;94588.13;;;24.73;37.04
71194;BME280;58903;47.210;8.618;2024-01-10T03:30:32;94592.44;;;24.75;37.26
71194;BME280;58903;47.210;8.618;2024-01-10T03:33:32;94588.88;;;24.74;37.14
71194;BME280;58903;47.210;8.618;2024-01-10T03:36:23;94590.88;;;24.73;36.47
71194;BME280;58903;47.210;8.618;2024-01-10T03:41:43;94594.38;;;24.74;37.21
71194;BME280;58903;47.210;8.618;2024-01-10T03:44:19;94598.19;;;24.77;36.89
71194;BME280;58903;47.210;8.618;2024-01-10T03:46:59;94597.66;;;24.78;37.11
71194;BME280;58903;47.210;8.618;2024-01-10T03:49:27;94594.16;;;24.78;36.88
71194;BME280;58903;47.210;8.618;2024-01-10T03:51:53;94595.66;;;24.79;36.59
71194;BME280;58903;47.210;8.618;2024-01-10T03:54:19;94592.66;;;24.77;36.74
71194;BME280;58903;47.210;8.618;2024-01-10T03:56:47;94588.13;;;24.73;36.31
71194;BME280;58903;47.210;8.618;2024-01-10T03:59:13;94600.94;;;24.77;36.18
71194;BME280;58903;47.210;8.618;2024-01-10T04:01:42;94601.69;;;24.77;37.13
71194;BME280;58903;47.210;8.618;2024-01-10T04:04:08;94599.41;;;24.76;36.45
71194;BME280;58903;47.210;8.618;2024-01-10T04:06:36;94595.41;;;24.77;36.64
71194;BME280;58903;47.210;8.618;2024-01-10T04:09:02;94593.91;;;24.76;36.89
71194;BME280;58903;47.210;8.618;2024-01-10T04:11:38;94599.41;;;24.76;36.50
71194;BME280;58903;47.210;8.618;2024-01-10T04:14:15;94597.94;;;24.75;36.86
71194;BME280;58903;47.210;8.618;2024-01-10T04:16:42;94600.69;;;24.75;36.53
71194;BME280;58903;47.210;8.618;2024-01-10T04:19:12;94600.69;;;24.75;37.13
71194;BME280;58903;47.210;8.618;2024-01-10T04:21:50;94596.13;;;24.71;36.74
71194;BME280;58903;47.210;8.618;2024-01-10T04:24:25;94597.94;;;24.75;36.49
71194;BME280;58903;47.210;8.618;2024-01-10T04:26:50;94596.13;;;24.71;36.68
71194;BME280;58903;47.210;8.618;2024-01-10T04:29:23;94605.38;;;24.74;37.12
71194;BME280;58903;47.210;8.618;2024-01-10T04:31:49;94601.88;;;24.73;36.29
71194;BME280;58903;47.210;8.618;2024-01-10T04:34:17;94605.38;;;24.74;36.22
71194;BME280;58903;47.210;8.618;2024-01-10T04:36:45;94602.63;;;24.74;36.42
71194;BME280;58903;47.210;8.618;2024-01-10T04:39:21;94603.88;;;24.73;36.38
71194;BME280;58903;47.210;8.618;2024-01-10T04:41:48;94597.66;;;24.73;36.48
71194;BME280;58903;47.210;8.618;2024-01-10T04:44:15;94602.38;;;24.72;37.09
71194;BME280;58903;47.210;8.618;2024-01-10T04:46:43;94604.38;;;24.71;37.00
71194;BME280;58903;47.210;8.618;2024-01-10T04:49:23;94590.63;;;24.71;36.48
71194;BME280;58903;47.210;8.618;2024-01-10T04:51:55;94597.66;;;24.73;36.76
71194;BME280;58903;47.210;8.618;2024-01-10T04:54:21;94603.63;;;24.71;36.20
71194;BME280;58903;47.210;8.618;2024-01-10T04:56:47;94597.41;;;24.70;36.20
71194;BME280;58903;47.210;8.618;2024-01-10T04:59:13;94598.88;;;24.71;37.04
71194;BME280;58903;47.210;8.618;2024-01-10T05:01:45;94601.38;;;24.69;36.94
71194;BME280;58903;47.210;8.618;2024-01-10T05:04:25;94603.63;;;24.71;37.09
71194;BME280;58903;47.210;8.618;2024-01-10T05:07:24;94598.88;;;24.71;36.10
71194;BME280;58903;47.210;8.618;2024-01-10T05:09:50;94605.66;;;24.70;36.73
71194;BME280;58903;47.210;8.618;2024-01-10T05:12:55;94602.16;;;24.70;37.09
71194;BME280;58903;47.210;8.618;2024-01-10T05:15:20;94606.13;;;24.69;36.48
71194;BME280;58903;47.210;8.618;2024-01-10T05:17:56;94598.38;;;24.67;36.04
71194;BME280;58903;47.210;8.618;2024-01-10T05:20:35;94604.38;;;24.71;36.44
71194;BME280;58903;47.210;8.618;2024-01-10T05:23:11;94603.16;;;24.73;36.80
71194;BME280;58903;47.210;8.618;2024-01-10T05:25:37;94606.38;;;24.71;36.98
71194;BME280;58903;47.210;8.618;2024-01-10T05:28:04;94604.38;;;24.71;36.99
71194;BME280;58903;47.210;8.618;2024-01-10T05:30:37;94610.13;;;24.73;36.72
71194;BME280;58903;47.210;8.618;2024-01-10T05:33:21;94611.69;;;24.75;36.42
71194;BME280;58903;47.210;8.618;2024-01-10T05:35:47;94609.38;;;24.73;36.38
71194;BME280;58903;47.210;8.618;2024-01-10T05:38:13;94615.63;;;24.73;36.59
71194;BME280;58903;47.210;8.618;2024-01-10T05:40:39;94618.44;;;24.79;36.79
71194;BME280;58903;47.210;8.618;2024-01-10T05:43:06;94616.91;;;24.78;36.51
71194;BME280;58903;47.210;8.618;2024-01-10T05:45:33;94615.63;;;24.73;36.74
71194;BME280;58903;47.210;8.618;2024-01-10T05:48:01;94619.16;;;24.74;37.11
71194;BME280;58903;47.210;8.618;2024-01-10T05:50:27;94615.63;;;24.73;36.76
71194;BME280;58903;47.210;8.618;2024-01-10T05:52:53;94617.91;;;24.75;36.12
71194;BME280;58903;47.210;8.618;2024-01-10T05:55:26;94621.41;;;24.76;36.29
71194;BME280;58903;47.210;8.618;2024-01-10T05:58:06;94628.19;;;24.75;36.11
71194;BME280;58903;47.210;8.618;2024-01-10T06:00:36;94621.66;;;24.78;36.72
71194;BME280;58903;47.210;8.618;2024-01-10T06:03:04;94625.44;;;24.86;36.68
71194;BME280;58903;47.210;8.618;2024-01-10T06:05:30;94640.16;;;24.88;35.98
71194;BME280;58903;47.210;8.618;2024-01-10T06:08:04;94638.19;;;24.89;36.64
71194;BME280;58903;47.210;8.618;2024-01-10T06:10:34;94629.69;;;24.92;36.19
71194;BME280;58903;47.210;8.618;2024-01-10T06:13:02;94634.94;;;24.96;36.15
71194;BME280;58903;47.210;8.618;2024-01-10T06:15:31;94634.94;;;24.96;35.65
71194;BME280;58903;47.210;8.618;2024-01-10T06:18:16;94629.94;;;24.94;36.02
71194;BME280;58903;47.210;8.618;2024-01-10T06:21:00;94622.19;;;24.98;35.78
71194;BME280;58903;47.210;8.618;2024-01-10T06:23:28;94627.94;;;25.00;35.93
71194;BME280;58903;47.210;8.618;2024-01-10T06:25:53;94625.19;;;25.00;35.83
71194;BME280;58903;47.210;8.618;2024-01-10T06:28:23;94618.66;;;24.98;35.85
71194;BME280;58903;47.210;8.618;2024-01-10T06:30:56;94620.44;;;25.01;36.36
71194;BME280;58903;47.210;8.618;2024-01-10T06:33:22;94619.66;;;25.00;35.47
71194;BME280;58903;47.210;8.618;2024-01-10T06:35:48;94618.66;;;24.98;35.54
71194;BME280;58903;47.210;8.618;2024-01-10T06:38:21;94623.94;;;24.96;35.38
71194;BME280;58903;47.210;8.618;2024-01-10T06:41:06;94628.19;;;24.97;35.85
71194;BME280;58903;47.210;8.618;2024-01-10T06:43:38;94622.19;;;24.98;36.18
71194;BME280;58903;47.210;8.618;2024-01-10T06:46:36;94619.66;;;25.00;36.26
71194;BME280;58903;47.210;8.618;2024-01-10T06:49:02;94625.69;;;24.99;36.34
71194;BME280;58903;47.210;8.618;2024-01-10T06:51:28;94625.44;;;24.97;36.19
71194;BME280;58903;47.210;8.618;2024-01-10T06:53:55;94630.94;;;24.97;36.86
71194;BME280;58903;47.210;8.618;2024-01-10T06:56:28;94631.19;;;24.99;36.72
71194;BME280;58903;47.210;8.618;2024-01-10T06:58:54;94629.16;;;24.99;36.89
71194;BME280;58903;47.210;8.618;2024-01-10T07:01:22;94626.94;;;24.98;36.40
71194;BME280;58903;47.210;8.618;2024-01-10T07:04:08;94632.44;;;24.98;36.41
71194;BME280;58903;47.210;8.618;2024-01-10T07:06:49;94632.44;;;24.98;36.74
71194;BME280;58903;47.210;8.618;2024-01-10T07:09:15;94630.94;;;24.97;37.13
71194;BME280;58903;47.210;8.618;2024-01-10T07:11:55;94637.94;;;24.98;36.61
71194;BME280;58903;47.210;8.618;2024-01-10T07:14:23;94635.19;;;24.98;36.67
71194;BME280;58903;47.210;8.618;2024-01-10T07:16:59;94640.19;;;24.99;37.27
71194;BME280;58903;47.210;8.618;2024-01-10T07:19:33;94639.44;;;24.99;36.71
71194;BME280;58903;47.210;8.618;2024-01-10T07:22:00;94640.94;;;25.00;37.25
71194;BME280;58903;47.210;8.618;2024-01-10T07:24:32;94644.69;;;25.02;36.66
71194;BME280;58903;47.210;8.618;2024-01-10T07:27:08;94648.19;;;25.03;36.79
71194;BME280;58903;47.210;8.618;2024-01-10T07:29:43;94657.94;;;25.04;36.21
71194;BME280;58903;47.210;8.618;2024-01-10T07:32:18;94647.69;;;25.04;36.36
71194;BME280;58903;47.210;8.618;2024-01-10T07:35:04;94651.19;;;25.05;37.17
71194;BME280;58903;47.210;8.618;2024-01-10T07:37:42;94657.94;;;25.04;36.36
71194;BME280;58903;47.210;8.618;2024-01-10T07:40:10;94661.44;;;25.04;36.87
71194;BME280;58903;47.210;8.618;2024-01-10T07:43:09;94664.47;;;25.01;36.75
71194;BME280;58903;47.210;8.618;2024-01-10T07:45:41;94655.97;;;24.99;36.48
71194;BME280;58903;47.210;8.618;2024-01-10T07:48:27;94664.44;;;25.06;36.30
71194;BME280;58903;47.210;8.618;2024-01-10T07:51:06;94660.44;;;25.02;36.94
71194;BME280;58903;47.210;8.618;2024-01-10T07:53:33;94668.94;;;25.04;36.90
71194;BME280;58903;47.210;8.618;2024-01-10T07:56:30;94673.22;;;25.05;36.49
71194;BME280;58903;47.210;8.618;2024-01-10T07:58:57;94678.72;;;25.05;36.34
71194;BME280;58903;47.210;8.618;2024-01-10T08:01:30;94676.22;;;25.07;36.56
71194;BME280;58903;47.210;8.618;2024-01-10T08:03:56;94675.47;;;25.06;36.59
71194;BME280;58903;47.210;8.618;2024-01-10T08:06:23;94676.72;;;25.05;36.65
71194;BME280;58903;47.210;8.618;2024-01-10T08:08:52;94676.72;;;25.00;36.83
71194;BME280;58903;47.210;8.618;2024-01-10T08:11:34;94673.44;;;25.01;36.98
71194;BME280;58903;47.210;8.618;2024-01-10T08:14:06;94675.47;;;25.01;36.43
71194;BME280;58903;47.210;8.618;2024-01-10T08:16:34;94680.97;;;25.01;37.12
71194;BME280;58903;47.210;8.618;2024-01-10T08:19:02;94674.72;;;25.00;37.22
71194;BME280;58903;47.210;8.618;2024-01-10T08:21:30;94679.72;;;25.02;36.50
71194;BME280;58903;47.210;8.618;2024-01-10T08:24:01;94684.97;;;25.00;37.37
71194;BME280;58903;47.210;8.618;2024-01-10T08:26:28;94679.97;;;24.98;37.45
71194;BME280;58903;47.210;8.618;2024-01-10T08:28:55;94677.97;;;24.99;37.28
71194;BME280;58903;47.210;8.618;2024-01-10T08:31:28;94682.94;;;24.95;36.92
71194;BME280;58903;47.210;8.618;2024-01-10T08:34:05;94683.97;;;24.92;37.02
71194;BME280;58903;47.210;8.618;2024-01-10T08:36:32;94685.97;;;24.91;36.36
71194;BME280;58903;47.210;8.618;2024-01-10T08:38:58;94691.19;;;24.95;36.67
71194;BME280;58903;47.210;8.618;2024-01-10T08:41:26;94687.47;;;24.92;37.17
71194;BME280;58903;47.210;8.618;2024-01-10T08:43:59;94684.44;;;24.85;36.37
71194;BME280;58903;47.210;8.618;2024-01-10T08:46:26;94688.72;;;24.91;37.14
71194;BME280;58903;47.210;8.618;2024-01-10T08:48:53;94692.47;;;24.94;36.77
71194;BME280;58903;47.210;8.618;2024-01-10T08:51:19;94697.47;;;24.90;37.05
71194;BME280;58903;47.210;8.618;2024-01-10T08:53:45;94689.22;;;24.90;37.28
71194;BME280;58903;47.210;8.618;2024-01-10T08:56:21;94693.94;;;24.95;37.15
71194;BME280;58903;47.210;8.618;2024-01-10T08:58:52;94700.97;;;24.96;36.81
71194;BME280;58903;47.210;8.618;2024-01-10T09:01:28;94701.97;;;24.93;37.03
71194;BME280;58903;47.210;8.618;2024-01-10T09:04:09;94706.22;;;24.94;36.90
71194;BME280;58903;47.210;8.618;2024-01-10T09:06:35;94717.47;;;24.96;36.77
71194;BME280;58903;47.210;8.618;2024-01-10T09:09:04;94718.72;;;24.95;37.02
71194;BME280;58903;47.210;8.618;2024-01-10T09:11:33;94715.97;;;24.95;36.92
71194;BME280;58903;47.210;8.618;2024-01-10T09:14:01;94710.47;;;24.95;36.35
71194;BME280;58903;47.210;8.618;2024-01-10T09:16:33;94713.97;;;24.90;36.38
71194;BME280;58903;47.210;8.618;2024-01-10T09:19:14;94722.22;;;24.90;36.54
71194;BME280;58903;47.210;8.618;2024-01-10T09:21:53;94722.22;;;24.84;37.14
71194;BME280;58903;47.210;8.618;2024-01-10T09:24:30;94726.72;;;24.87;37.13
71194;BME280;58903;47.210;8.618;2024-01-10T09:27:03;94735.50;;;24.86;36.38
71194;BME280;58903;47.210;8.618;2024-01-10T09:29:36;94723.94;;;24.82;37.25
71194;BME280;58903;47.210;8.618;2024-01-10T09:32:02;94723.22;;;24.81;36.71
71194;BME280;58903;47.210;8.618;2024-01-10T09:34:33;94724.72;;;24.82;36.47
71194;BME280;58903;47.210;8.618;2024-01-10T09:37:19;94730.72;;;24.86;37.10
71194;BME280;58903;47.210;8.618;2024-01-10T09:39:51;94728.72;;;24.81;36.47
71194;BME280;58903;47.210;8.618;2024-01-10T09:42:18;94735.72;;;24.82;37.41
71194;BME280;58903;47.210;8.618;2024-01-10T09:44:47;94734.47;;;24.83;36.38
71194;BME280;58903;47.210;8.618;2024-01-10T09:47:15;94728.97;;;24.83;36.60
71194;BME280;58903;47.210;8.618;2024-01-10T09:49:41;94733.72;;;24.88;37.06
71194;BME280;58903;47.210;8.618;2024-01-10T09:52:10;94729.72;;;24.84;37.42
71194;BME280;58903;47.210;8.618;2024-01-10T09:54:38;94742.25;;;24.90;37.03
71194;BME280;58903;47.210;8.618;2024-01-10T09:57:22;94741.00;;;24.86;36.90
71194;BME280;58903;47.210;8.618;2024-01-10T09:59:50;94733.47;;;24.86;37.46
71194;BME280;58903;47.210;8.618;2024-01-10T10:02:23;94736.72;;;24.85;37.11
71194;BME280;58903;47.210;8.618;2024-01-10T10:05:17;94741.75;;;24.92;37.37
71194;BME280;58903;47.210;8.618;2024-01-10T10:07:52;94743.22;;;24.93;36.86
71194;BME280;58903;47.210;8.618;2024-01-10T10:10:32;94736.97;;;24.87;37.35
71194;BME280;58903;47.210;8.618;2024-01-10T10:13:02;94739.97;;;24.89;37.18
71194;BME280;58903;47.210;8.618;2024-01-10T10:15:29;94739.97;;;24.89;37.38
71194;BME280;58903;47.210;8.618;2024-01-10T10:17:55;94743.22;;;24.93;37.01
71194;BME280;58903;47.210;8.618;2024-01-10T10:20:24;94735.50;;;24.97;36.74
71194;BME280;58903;47.210;8.618;2024-01-10T10:23:06;94730.97;;;24.99;36.67
71194;BME280;58903;47.210;8.618;2024-01-10T10:25:34;94727.75;;;25.01;36.59
71194;BME280;58903;47.210;8.618;2024-01-10T10:28:02;94732.75;;;25.02;36.41
71194;BME280;58903;47.210;8.618;2024-01-10T10:30:32;94721.47;;;24.95;37.02
71194;BME280;58903;47.210;8.618;2024-01-10T10:33:01;94732.22;;;24.93;36.73
71194;BME280;58903;47.210;8.618;2024-01-10T10:35:30;94727.72;;;24.95;36.10
71194;BME280;58903;47.210;8.618;2024-01-10T10:38:02;94727.50;;;24.99;37.13
71194;BME280;58903;47.210;8.618;2024-01-10T10:40:35;94731.50;;;24.98;36.65
71194;BME280;58903;47.210;8.618;2024-01-10T10:43:14;94735.00;;;24.98;36.26
71194;BME280;58903;47.210;8.618;2024-01-10T10:45:49;94724.22;;;24.95;36.50
71194;BME280;58903;47.210;8.618;2024-01-10T10:48:32;94731.97;;;24.91;37.27
71194;BME280;58903;47.210;8.618;2024-01-10T10:51:37;94729.22;;;24.91;37.17
71194;BME280;58903;47.210;8.618;2024-01-10T10:54:04;94740.47;;;24.87;37.18
71194;BME280;58903;47.210;8.618;2024-01-10T10:56:33;94738.25;;;24.86;37.00
71194;BME280;58903;47.210;8.618;2024-01-10T10:59:05;94741.25;;;24.88;37.20
71194;BME280;58903;47.210;8.618;2024-01-10T11:02:05;94738.72;;;24.84;37.30
71194;BME280;58903;47.210;8.618;2024-01-10T11:04:47;94728.72;;;24.81;37.32
71194;BME280;58903;47.210;8.618;2024-01-10T11:07:14;94723.22;;;24.81;38.03
71194;BME280;58903;47.210;8.618;2024-01-10T11:09:49;94713.19;;;24.78;37.58
71194;BME280;58903;47.210;8.618;2024-01-10T11:23:47;94705.69;;;24.84;37.87
71194;BME280;58903;47.210;8.618;2024-01-10T11:26:23;94715.47;;;24.91;37.49
71194;BME280;58903;47.210;8.618;2024-01-10T11:28:50;94713.47;;;24.91;37.25
71194;BME280;58903;47.210;8.618;2024-01-10T11:31:28;94708.97;;;24.94;37.04
71194;BME280;58903;47.210;8.618;2024-01-10T11:34:06;94709.72;;;25.00;36.83
71194;BME280;58903;47.210;8.618;2024-01-10T11:36:33;94709.47;;;24.98;37.79
71194;BME280;58903;47.210;8.618;2024-01-10T11:39:04;94707.22;;;24.96;37.34
71194;BME280;58903;47.210;8.618;2024-01-10T11:41:34;94694.47;;;24.99;37.60
71194;BME280;58903;47.210;8.618;2024-01-10T11:46:47;94697.72;;;25.03;37.61
71194;BME280;58903;47.210;8.618;2024-01-10T11:49:21;94701.97;;;25.04;37.78
71194;BME280;58903;47.210;8.618;2024-01-10T11:51:52;94692.22;;;25.03;37.31
71194;BME280;58903;47.210;8.618;2024-01-10T11:54:44;94697.97;;;25.05;37.21
71194;BME280;58903;47.210;8.618;2024-01-10T11:57:36;94683.47;;;24.99;36.92
71194;BME280;58903;47.210;8.618;2024-01-10T12:00:04;94688.47;;;25.06;37.43
71194;BME280;58903;47.210;8.618;2024-01-10T12:02:34;94682.94;;;25.06;36.81
71194;BME280;58903;47.210;8.618;2024-01-10T12:05:01;94687.22;;;25.07;36.91
71194;BME280;58903;47.210;8.618;2024-01-10T12:07:29;94688.22;;;25.04;36.72
71194;BME280;58903;47.210;8.618;2024-01-10T12:09:55;94682.47;;;25.02;36.86
71194;BME280;58903;47.210;8.618;2024-01-10T12:12:21;94690.72;;;25.07;37.32
71194;BME280;58903;47.210;8.618;2024-01-10T12:14:48;94691.22;;;25.06;37.01
71194;BME280;58903;47.210;8.618;2024-01-10T12:17:16;94697.97;;;25.05;37.35
71194;BME280;58903;47.210;8.618;2024-01-10T12:20:13;94697.97;;;25.05;36.86
71194;BME280;58903;47.210;8.618;2024-01-10T12:22:42;94694.22;;;25.08;37.62
71194;BME280;58903;47.210;8.618;2024-01-10T12:25:09;94695.47;;;25.07;37.54
71194;BME280;58903;47.210;8.618;2024-01-10T12:27:35;94695.72;;;25.09;37.17
71194;BME280;58903;47.210;8.618;2024-01-10T12:30:05;94703.97;;;25.09;37.14
71194;BME280;58903;47.210;8.618;2024-01-10T12:32:31;94696.97;;;25.08;37.36
71194;BME280;58903;47.210;8.618;2024-01-10T12:35:08;94700.47;;;25.08;37.04
71194;BME280;58903;47.210;8.618;2024-01-10T12:37:53;94690.97;;;25.04;36.79
71194;BME280;58903;47.210;8.618;2024-01-10T12:40:28;94688.97;;;25.10;37.34
71194;BME280;58903;47.210;8.618;2024-01-10T12:43:06;94687.47;;;25.09;37.24
71194;BME280;58903;47.210;8.618;2024-01-10T12:45:47;94684.72;;;25.09;36.69
71194;BME280;58903;47.210;8.618;2024-01-10T12:48:13;94689.72;;;25.05;37.09
71194;BME280;58903;47.210;8.618;2024-01-10T12:50:44;94690.97;;;25.04;36.87
71194;BME280;58903;47.210;8.618;2024-01-10T12:53:12;94688.22;;;25.04;37.51
71194;BME280;58903;47.210;8.618;2024-01-10T12:55:48;94682.94;;;25.06;37.56
71194;BME280;58903;47.210;8.618;2024-01-10T12:58:16;94688.47;;;25.06;37.84
71194;BME280;58903;47.210;8.618;2024-01-10T13:00:42;94692.22;;;25.03;37.59
71194;BME280;58903;47.210;8.618;2024-01-10T13:03:10;94691.72;;;24.99;37.88
71194;BME280;58903;47.210;8.618;2024-01-10T13:06:06;94695.22;;;24.99;38.15
71194;BME280;58903;47.210;8.618;2024-01-10T13:08:42;94686.97;;;24.99;37.08
71194;BME280;58903;47.210;8.618;2024-01-10T13:11:18;94691.22;;;25.00;37.59
71194;BME280;58903;47.210;8.618;2024-01-10T13:14:12;94692.22;;;25.03;37.42
71194;BME280;58903;47.210;8.618;2024-01-10T13:16:48;94694.47;;;24.99;37.12
71194;BME280;58903;47.210;8.618;2024-01-10T13:19:14;94695.47;;;24.96;38.04
71194;BME280;58903;47.210;8.618;2024-01-10T13:21:40;94703.22;;;24.97;37.69
71194;BME280;58903;47.210;8.618;2024-01-10T13:24:07;94697.97;;;24.94;37.56
71194;BME280;58903;47.210;8.618;2024-01-10T13:26:46;94694.97;;;24.92;38.07
71194;BME280;58903;47.210;8.618;2024-01-10T13:29:39;94702.50;;;24.97;38.13
71194;BME280;58903;47.210;8.618;2024-01-10T13:32:08;94696.72;;;24.95;38.47
71194;BME280;58903;47.210;8.618;2024-01-10T13:35:09;94706.47;;;25.01;38.39
71194;BME280;58903;47.210;8.618;2024-01-10T13:37:37;94705.75;;;25.01;37.70
71194;BME280;58903;47.210;8.618;2024-01-10T13:40:20;94707.47;;;25.04;37.92
71194;BME280;58903;47.210;8.618;2024-01-10T13:42:49;94705.47;;;25.04;37.51
71194;BME280;58903;47.210;8.618;2024-01-10T13:45:18;94700.47;;;25.03;37.23